sensor_id;sensor_type;location;lat;lon;timestamp;pressure;altitude;pressure_sealevel;temperature;humidity
66430;BME280;53242;51.694;10.006;2022-07-17T00:00:43;100601.41;;;15.56;51.77
66430;BME280;53242;51.694;10.006;2022-07-17T00:03:06;100598.72;;;15.49;51.84
66430;BME280;53242;51.694;10.006;2022-07-17T00:05:28;100591.75;;;15.48;52.00
66430;BME280;53242;51.694;10.006;2022-07-17T00:07:51;100601.38;;;15.42;52.23
66430;BME280;53242;51.694;10.006;2022-07-17T00:10:13;100600.56;;;15.42;52.35
66430;BME280;53242;51.694;10.006;2022-07-17T00:12:36;100597.69;;;15.43;52.25
66430;BME280;53242;51.694;10.006;2022-07-17T00:14:58;100609.31;;;15.29;52.87
66430;BME280;53242;51.694;10.006;2022-07-17T00:17:21;100612.75;;;15.23;53.01
66430;BME280;53242;51.694;10.006;2022-07-17T00:19:43;100609.75;;;14.98;53.77
66430;BME280;53242;51.694;10.006;2022-07-17T00:22:06;100620.34;;;14.91;54.26
66430;BME280;53242;51.694;10.006;2022-07-17T00:24:28;100609.47;;;15.21;53.09
66430;BME280;53242;51.694;10.006;2022-07-17T00:26:52;100608.22;;;15.17;53.18
66430;BME280;53242;51.694;10.006;2022-07-17T00:29:14;100603.31;;;15.13;53.45
66430;BME280;53242;51.694;10.006;2022-07-17T00:31:37;100604.75;;;15.16;53.06
66430;BME280;53242;51.694;10.006;2022-07-17T00:34:00;100593.66;;;15.06;53.83
66430;BME280;53242;51.694;10.006;2022-07-17T00:36:22;100596.91;;;15.08;53.49
66430;BME280;53242;51.694;10.006;2022-07-17T00:38:45;100595.91;;;15.09;53.35
66430;BME280;53242;51.694;10.006;2022-07-17T00:41:07;100595.91;;;15.09;53.52
66430;BME280;53242;51.694;10.006;2022-07-17T00:43:30;100593.69;;;15.12;53.08
66430;BME280;53242;51.694;10.006;2022-07-17T00:46:00;100596.13;;;15.14;52.94
66430;BME280;53242;51.694;10.006;2022-07-17T00:48:23;100591.63;;;15.15;52.95
66430;BME280;53242;51.694;10.006;2022-07-17T00:50:45;100597.53;;;15.03;53.09
66430;BME280;53242;51.694;10.006;2022-07-17T00:53:08;100601.06;;;14.82;54.13
66430;BME280;53242;51.694;10.006;2022-07-17T00:55:30;100603.94;;;14.80;54.28
66430;BME280;53242;51.694;10.006;2022-07-17T00:57:55;100591.03;;;14.77;54.31
66430;BME280;53242;51.694;10.006;2022-07-17T01:00:18;100586.72;;;14.70;54.48
66430;BME280;53242;51.694;10.006;2022-07-17T01:02:40;100594.69;;;14.70;54.43
66430;BME280;53242;51.694;10.006;2022-07-17T01:05:06;100588.00;;;14.59;54.61
66430;BME280;53242;51.694;10.006;2022-07-17T01:07:29;100589.63;;;14.53;55.03
66430;BME280;53242;51.694;10.006;2022-07-17T01:09:51;100588.41;;;14.56;54.86
66430;BME280;53242;51.694;10.006;2022-07-17T01:12:14;100587.16;;;14.52;54.99
66430;BME280;53242;51.694;10.006;2022-07-17T01:14:37;100593.81;;;14.41;55.39
66430;BME280;53242;51.694;10.006;2022-07-17T01:17:00;100594.22;;;14.38;55.60
66430;BME280;53242;51.694;10.006;2022-07-17T01:19:23;100595.78;;;14.32;55.91
66430;BME280;53242;51.694;10.006;2022-07-17T01:21:47;100585.41;;;14.37;55.69
66430;BME280;53242;51.694;10.006;2022-07-17T01:24:11;100590.34;;;14.40;55.70
66430;BME280;53242;51.694;10.006;2022-07-17T01:26:34;100596.47;;;14.41;55.64
66430;BME280;53242;51.694;10.006;2022-07-17T01:28:57;100597.47;;;14.40;55.45
66430;BME280;53242;51.694;10.006;2022-07-17T01:31:19;100592.25;;;14.25;56.01
66430;BME280;53242;51.694;10.006;2022-07-17T01:33:42;100595.94;;;14.24;56.19
66430;BME280;53242;51.694;10.006;2022-07-17T01:36:04;100602.25;;;14.23;56.36
66430;BME280;53242;51.694;10.006;2022-07-17T01:38:27;100601.56;;;14.14;56.68
66430;BME280;53242;51.694;10.006;2022-07-17T01:40:49;100601.56;;;14.14;56.46
66430;BME280;53242;51.694;10.006;2022-07-17T01:43:13;100598.53;;;14.17;56.34
66430;BME280;53242;51.694;10.006;2022-07-17T01:45:36;100594.22;;;14.16;56.23
66430;BME280;53242;51.694;10.006;2022-07-17T01:47:58;100592.03;;;14.20;56.31
66430;BME280;53242;51.694;10.006;2022-07-17T01:50:21;100601.63;;;14.21;56.52
66430;BME280;53242;51.694;10.006;2022-07-17T01:52:44;100596.06;;;14.16;56.35
66430;BME280;53242;51.694;10.006;2022-07-17T01:55:09;100597.44;;;14.11;56.80
66430;BME280;53242;51.694;10.006;2022-07-17T01:57:32;100601.13;;;14.10;56.63
66430;BME280;53242;51.694;10.006;2022-07-17T01:59:55;100597.63;;;14.10;56.63
66430;BME280;53242;51.694;10.006;2022-07-17T02:02:18;100606.25;;;14.12;56.42
66430;BME280;53242;51.694;10.006;2022-07-17T02:04:41;100601.69;;;14.06;56.51
66430;BME280;53242;51.694;10.006;2022-07-17T02:07:04;100610.91;;;14.10;56.29
66430;BME280;53242;51.694;10.006;2022-07-17T02:09:27;100609.78;;;13.97;56.95
66430;BME280;53242;51.694;10.006;2022-07-17T02:11:49;100610.59;;;13.98;56.84
66430;BME280;53242;51.694;10.006;2022-07-17T02:14:12;100614.00;;;13.92;57.14
66430;BME280;53242;51.694;10.006;2022-07-17T02:16:34;100615.59;;;13.86;57.47
66430;BME280;53242;51.694;10.006;2022-07-17T02:18:57;100615.53;;;13.79;57.68
66430;BME280;53242;51.694;10.006;2022-07-17T02:21:20;100618.19;;;13.79;57.41
66430;BME280;53242;51.694;10.006;2022-07-17T02:23:43;100611.69;;;13.82;57.04
66430;BME280;53242;51.694;10.006;2022-07-17T02:26:05;100619.00;;;13.80;56.76
66430;BME280;53242;51.694;10.006;2022-07-17T02:28:28;100619.75;;;13.74;57.04
66430;BME280;53242;51.694;10.006;2022-07-17T02:30:50;100614.28;;;13.60;57.46
66430;BME280;53242;51.694;10.006;2022-07-17T02:33:13;100610.63;;;13.61;57.26
66430;BME280;53242;51.694;10.006;2022-07-17T02:35:35;100614.66;;;13.57;57.39
66430;BME280;53242;51.694;10.006;2022-07-17T02:37:58;100619.16;;;13.57;57.22
66430;BME280;53242;51.694;10.006;2022-07-17T02:40:20;100615.50;;;13.43;57.52
66430;BME280;53242;51.694;10.006;2022-07-17T02:42:43;100613.44;;;13.38;57.91
66430;BME280;53242;51.694;10.006;2022-07-17T02:45:06;100620.06;;;13.34;58.13
66430;BME280;53242;51.694;10.006;2022-07-17T02:47:29;100618.53;;;13.25;58.39
66430;BME280;53242;51.694;10.006;2022-07-17T02:49:52;100621.09;;;13.18;58.57
66430;BME280;53242;51.694;10.006;2022-07-17T02:52:15;100620.44;;;13.16;58.82
66430;BME280;53242;51.694;10.006;2022-07-17T02:54:38;100621.63;;;13.13;58.94
66430;BME280;53242;51.694;10.006;2022-07-17T02:57:00;100623.66;;;13.11;58.97
66430;BME280;53242;51.694;10.006;2022-07-17T02:59:22;100629.38;;;13.15;58.62
66430;BME280;53242;51.694;10.006;2022-07-17T03:01:45;100630.22;;;13.00;59.36
66430;BME280;53242;51.694;10.006;2022-07-17T03:04:07;100633.78;;;13.08;59.05
66430;BME280;53242;51.694;10.006;2022-07-17T03:06:30;100632.53;;;13.04;58.79
66430;BME280;53242;51.694;10.006;2022-07-17T03:08:52;100626.38;;;13.03;59.14
66430;BME280;53242;51.694;10.006;2022-07-17T03:11:15;100633.72;;;13.01;59.11
66430;BME280;53242;51.694;10.006;2022-07-17T03:13:38;100620.88;;;13.05;58.95
66430;BME280;53242;51.694;10.006;2022-07-17T03:16:00;100622.53;;;13.06;58.85
66430;BME280;53242;51.694;10.006;2022-07-17T03:18:23;100623.38;;;13.06;59.04
66430;BME280;53242;51.694;10.006;2022-07-17T03:20:45;100623.53;;;13.05;59.00
66430;BME280;53242;51.694;10.006;2022-07-17T03:23:08;100626.03;;;13.06;58.95
66430;BME280;53242;51.694;10.006;2022-07-17T03:25:30;100625.19;;;13.06;58.93
66430;BME280;53242;51.694;10.006;2022-07-17T03:27:53;100624.84;;;13.09;58.61
66430;BME280;53242;51.694;10.006;2022-07-17T03:30:15;100623.72;;;13.03;58.77
66430;BME280;53242;51.694;10.006;2022-07-17T03:32:38;100630.16;;;13.09;58.49
66430;BME280;53242;51.694;10.006;2022-07-17T03:35:00;100644.13;;;13.03;58.66
66430;BME280;53242;51.694;10.006;2022-07-17T03:37:23;100637.06;;;13.10;58.58
66430;BME280;53242;51.694;10.006;2022-07-17T03:39:46;100636.97;;;13.03;58.65
66430;BME280;53242;51.694;10.006;2022-07-17T03:42:08;100633.78;;;13.08;58.57
66430;BME280;53242;51.694;10.006;2022-07-17T03:44:31;100642.81;;;13.13;57.97
66430;BME280;53242;51.694;10.006;2022-07-17T03:46:53;100637.06;;;13.10;58.43
66430;BME280;53242;51.694;10.006;2022-07-17T03:49:16;100642.75;;;13.07;58.49
66430;BME280;53242;51.694;10.006;2022-07-17T03:51:38;100651.16;;;13.10;58.26
66430;BME280;53242;51.694;10.006;2022-07-17T03:54:01;100648.22;;;13.05;58.66
66430;BME280;53242;51.694;10.006;2022-07-17T03:56:23;100654.91;;;13.01;59.05
66430;BME280;53242;51.694;10.006;2022-07-17T03:58:46;100654.78;;;12.94;59.45
66430;BME280;53242;51.694;10.006;2022-07-17T04:01:08;100656.44;;;12.95;59.65
66430;BME280;53242;51.694;10.006;2022-07-17T04:03:31;100661.56;;;12.97;59.50
66430;BME280;53242;51.694;10.006;2022-07-17T04:05:53;100667.50;;;12.99;59.35
66430;BME280;53242;51.694;10.006;2022-07-17T04:08:16;100668.31;;;12.99;58.93
66430;BME280;53242;51.694;10.006;2022-07-17T04:10:39;100662.03;;;13.00;59.26
66430;BME280;53242;51.694;10.006;2022-07-17T04:13:01;100658.19;;;13.03;59.33
66430;BME280;53242;51.694;10.006;2022-07-17T04:15:24;100661.75;;;13.10;59.18
66430;BME280;53242;51.694;10.006;2022-07-17T04:18:05;100663.28;;;13.05;59.16
66430;BME280;53242;51.694;10.006;2022-07-17T04:20:27;100667.22;;;12.94;60.04
66430;BME280;53242;51.694;10.006;2022-07-17T04:22:51;100668.31;;;12.85;60.85
66430;BME280;53242;51.694;10.006;2022-07-17T04:25:13;100668.41;;;12.91;60.91
66430;BME280;53242;51.694;10.006;2022-07-17T04:27:36;100685.50;;;12.89;61.40
66430;BME280;53242;51.694;10.006;2022-07-17T04:29:58;100690.06;;;12.95;60.58
66430;BME280;53242;51.694;10.006;2022-07-17T04:32:20;100690.34;;;13.00;60.73
66430;BME280;53242;51.694;10.006;2022-07-17T04:34:43;100688.31;;;13.02;60.38
66430;BME280;53242;51.694;10.006;2022-07-17T04:37:05;100695.66;;;13.00;61.01
66430;BME280;53242;51.694;10.006;2022-07-17T04:39:28;100696.41;;;13.09;60.55
66430;BME280;53242;51.694;10.006;2022-07-17T04:41:51;100694.03;;;13.14;60.55
66430;BME280;53242;51.694;10.006;2022-07-17T04:44:14;100703.59;;;13.15;60.44
66430;BME280;53242;51.694;10.006;2022-07-17T04:46:37;100706.47;;;13.28;60.12
66430;BME280;53242;51.694;10.006;2022-07-17T04:48:59;100706.94;;;13.32;59.77
66430;BME280;53242;51.694;10.006;2022-07-17T04:51:22;100708.03;;;13.38;60.02
66430;BME280;53242;51.694;10.006;2022-07-17T04:53:44;100700.94;;;13.38;59.89
66430;BME280;53242;51.694;10.006;2022-07-17T04:56:07;100703.22;;;13.41;59.75
66430;BME280;53242;51.694;10.006;2022-07-17T04:58:29;100697.53;;;13.44;59.99
66430;BME280;53242;51.694;10.006;2022-07-17T05:00:52;100691.56;;;13.57;59.71
66430;BME280;53242;51.694;10.006;2022-07-17T05:03:14;100691.28;;;13.67;59.42
66430;BME280;53242;51.694;10.006;2022-07-17T05:05:37;100687.56;;;13.98;58.22
66430;BME280;53242;51.694;10.006;2022-07-17T05:08:02;100684.81;;;14.28;57.75
66430;BME280;53242;51.694;10.006;2022-07-17T05:10:25;100667.63;;;14.45;57.02
66430;BME280;53242;51.694;10.006;2022-07-17T05:12:48;100672.22;;;14.58;56.80
66430;BME280;53242;51.694;10.006;2022-07-17T05:15:10;100661.97;;;14.77;56.21
66430;BME280;53242;51.694;10.006;2022-07-17T05:17:33;100660.13;;;14.77;56.57
66430;BME280;53242;51.694;10.006;2022-07-17T05:19:55;100650.22;;;14.93;56.18
66430;BME280;53242;51.694;10.006;2022-07-17T05:22:18;100643.03;;;15.28;55.38
66430;BME280;53242;51.694;10.006;2022-07-17T05:24:40;100640.50;;;15.49;54.65
66430;BME280;53242;51.694;10.006;2022-07-17T05:27:03;100642.19;;;15.70;54.53
66430;BME280;53242;51.694;10.006;2022-07-17T05:29:25;100655.59;;;15.83;54.38
66430;BME280;53242;51.694;10.006;2022-07-17T05:31:48;100685.19;;;15.73;54.78
66430;BME280;53242;51.694;10.006;2022-07-17T05:34:10;100713.03;;;15.71;54.73
66430;BME280;53242;51.694;10.006;2022-07-17T05:36:33;100726.13;;;15.72;54.62
66430;BME280;53242;51.694;10.006;2022-07-17T05:38:56;100729.63;;;15.73;53.80
66430;BME280;53242;51.694;10.006;2022-07-17T05:41:18;100725.34;;;15.78;53.54
66430;BME280;53242;51.694;10.006;2022-07-17T05:43:41;100726.06;;;15.94;52.96
66430;BME280;53242;51.694;10.006;2022-07-17T05:46:03;100722.38;;;16.02;52.78
66430;BME280;53242;51.694;10.006;2022-07-17T05:48:26;100714.75;;;15.85;53.03
66430;BME280;53242;51.694;10.006;2022-07-17T05:50:48;100704.81;;;16.21;52.09
66430;BME280;53242;51.694;10.006;2022-07-17T05:53:11;100695.03;;;16.41;51.89
66430;BME280;53242;51.694;10.006;2022-07-17T05:55:33;100693.78;;;16.51;51.58
66430;BME280;53242;51.694;10.006;2022-07-17T05:57:56;100701.81;;;16.64;51.62
66430;BME280;53242;51.694;10.006;2022-07-17T06:00:18;100692.78;;;16.65;51.29
66430;BME280;53242;51.694;10.006;2022-07-17T06:02:41;100702.03;;;16.69;51.57
66430;BME280;53242;51.694;10.006;2022-07-17T06:05:03;100705.91;;;16.73;51.39
66430;BME280;53242;51.694;10.006;2022-07-17T06:07:26;100692.16;;;16.90;50.92
66430;BME280;53242;51.694;10.006;2022-07-17T06:09:48;100692.56;;;17.14;50.67
66430;BME280;53242;51.694;10.006;2022-07-17T06:12:11;100684.56;;;17.14;50.66
66430;BME280;53242;51.694;10.006;2022-07-17T06:14:33;100696.25;;;17.26;50.71
66430;BME280;53242;51.694;10.006;2022-07-17T06:16:56;100691.94;;;17.12;50.99
66430;BME280;53242;51.694;10.006;2022-07-17T06:19:18;100692.50;;;17.40;50.53
66430;BME280;53242;51.694;10.006;2022-07-17T06:21:41;100683.41;;;17.55;50.26
66430;BME280;53242;51.694;10.006;2022-07-17T06:24:03;100685.19;;;17.68;49.89
66430;BME280;53242;51.694;10.006;2022-07-17T06:26:26;100685.81;;;17.63;50.05
66430;BME280;53242;51.694;10.006;2022-07-17T06:28:49;100685.59;;;17.71;49.84
66430;BME280;53242;51.694;10.006;2022-07-17T06:31:11;100685.97;;;17.82;49.54
66430;BME280;53242;51.694;10.006;2022-07-17T06:33:34;100689.22;;;17.90;49.29
66430;BME280;53242;51.694;10.006;2022-07-17T06:35:57;100683.84;;;17.52;50.12
66430;BME280;53242;51.694;10.006;2022-07-17T06:38:19;100679.66;;;17.69;50.33
66430;BME280;53242;51.694;10.006;2022-07-17T06:40:42;100673.75;;;17.99;49.44
66430;BME280;53242;51.694;10.006;2022-07-17T06:43:05;100674.94;;;18.10;49.33
66430;BME280;53242;51.694;10.006;2022-07-17T06:45:28;100684.72;;;17.84;49.89
66430;BME280;53242;51.694;10.006;2022-07-17T06:47:51;100676.78;;;18.16;49.46
66430;BME280;53242;51.694;10.006;2022-07-17T06:50:13;100686.38;;;18.24;49.13
66430;BME280;53242;51.694;10.006;2022-07-17T06:52:36;100689.91;;;18.18;49.33
66430;BME280;53242;51.694;10.006;2022-07-17T06:54:58;100687.44;;;18.48;48.56
66430;BME280;53242;51.694;10.006;2022-07-17T06:57:21;100683.22;;;18.59;48.64
66430;BME280;53242;51.694;10.006;2022-07-17T06:59:43;100684.94;;;18.53;48.79
66430;BME280;53242;51.694;10.006;2022-07-17T07:02:06;100681.38;;;18.85;48.10
66430;BME280;53242;51.694;10.006;2022-07-17T07:04:28;100684.81;;;18.67;48.56
66430;BME280;53242;51.694;10.006;2022-07-17T07:06:51;100695.00;;;18.51;48.90
66430;BME280;53242;51.694;10.006;2022-07-17T07:09:13;100689.72;;;18.45;49.21
66430;BME280;53242;51.694;10.006;2022-07-17T07:11:36;100689.34;;;18.66;48.86
66430;BME280;53242;51.694;10.006;2022-07-17T07:13:59;100697.41;;;18.85;48.34
66430;BME280;53242;51.694;10.006;2022-07-17T07:16:22;100697.16;;;18.68;48.70
66430;BME280;53242;51.694;10.006;2022-07-17T07:18:44;100690.03;;;18.80;48.42
66430;BME280;53242;51.694;10.006;2022-07-17T07:21:07;100690.28;;;18.53;49.21
66430;BME280;53242;51.694;10.006;2022-07-17T07:23:29;100697.78;;;18.63;48.66
66430;BME280;53242;51.694;10.006;2022-07-17T07:25:52;100695.69;;;18.72;48.77
66430;BME280;53242;51.694;10.006;2022-07-17T07:28:14;100698.16;;;18.99;48.09
66430;BME280;53242;51.694;10.006;2022-07-17T07:30:37;100691.06;;;19.04;47.91
66430;BME280;53242;51.694;10.006;2022-07-17T07:32:59;100693.19;;;19.02;47.63
66430;BME280;53242;51.694;10.006;2022-07-17T07:35:21;100691.53;;;19.01;47.53
66430;BME280;53242;51.694;10.006;2022-07-17T07:37:44;100680.19;;;19.25;46.90
66430;BME280;53242;51.694;10.006;2022-07-17T07:40:08;100685.50;;;19.43;46.60
66430;BME280;53242;51.694;10.006;2022-07-17T07:42:30;100681.88;;;19.37;46.49
66430;BME280;53242;51.694;10.006;2022-07-17T07:44:53;100685.22;;;19.51;46.34
66430;BME280;53242;51.694;10.006;2022-07-17T07:47:15;100685.56;;;19.55;46.01
66430;BME280;53242;51.694;10.006;2022-07-17T07:49:38;100674.72;;;19.68;45.84
66430;BME280;53242;51.694;10.006;2022-07-17T07:52:01;100672.69;;;19.64;45.94
66430;BME280;53242;51.694;10.006;2022-07-17T07:54:23;100673.31;;;19.96;45.55
66430;BME280;53242;51.694;10.006;2022-07-17T07:56:46;100673.03;;;20.04;45.10
66430;BME280;53242;51.694;10.006;2022-07-17T07:59:08;100677.47;;;20.11;44.75
66430;BME280;53242;51.694;10.006;2022-07-17T08:01:30;100669.72;;;19.91;45.23
66430;BME280;53242;51.694;10.006;2022-07-17T08:03:53;100671.03;;;20.12;44.70
66430;BME280;53242;51.694;10.006;2022-07-17T08:06:15;100677.13;;;20.19;44.58
66430;BME280;53242;51.694;10.006;2022-07-17T08:08:38;100674.34;;;20.26;44.07
66430;BME280;53242;51.694;10.006;2022-07-17T08:11:00;100673.94;;;20.52;43.87
66430;BME280;53242;51.694;10.006;2022-07-17T08:13:23;100674.84;;;20.58;43.69
66430;BME280;53242;51.694;10.006;2022-07-17T08:15:45;100677.44;;;20.65;43.91
66430;BME280;53242;51.694;10.006;2022-07-17T08:18:08;100678.63;;;20.81;43.20
66430;BME280;53242;51.694;10.006;2022-07-17T08:20:31;100680.84;;;20.72;43.18
66430;BME280;53242;51.694;10.006;2022-07-17T08:22:53;100675.16;;;20.80;42.93
66430;BME280;53242;51.694;10.006;2022-07-17T08:25:16;100683.75;;;20.82;42.26
66430;BME280;53242;51.694;10.006;2022-07-17T08:27:40;100679.44;;;20.81;41.93
66430;BME280;53242;51.694;10.006;2022-07-17T08:30:03;100679.44;;;20.81;41.41
66430;BME280;53242;51.694;10.006;2022-07-17T08:32:26;100682.44;;;20.61;41.35
66430;BME280;53242;51.694;10.006;2022-07-17T08:34:49;100677.47;;;20.77;41.33
66430;BME280;53242;51.694;10.006;2022-07-17T08:37:11;100686.00;;;20.97;41.27
66430;BME280;53242;51.694;10.006;2022-07-17T08:39:34;100688.63;;;21.33;41.16
66430;BME280;53242;51.694;10.006;2022-07-17T08:41:56;100681.25;;;21.40;40.91
66430;BME280;53242;51.694;10.006;2022-07-17T08:44:19;100680.53;;;21.57;40.79
66430;BME280;53242;51.694;10.006;2022-07-17T08:46:41;100681.94;;;21.47;41.06
66430;BME280;53242;51.694;10.006;2022-07-17T08:49:05;100682.63;;;21.55;40.89
66430;BME280;53242;51.694;10.006;2022-07-17T08:51:30;100685.50;;;21.77;40.59
66430;BME280;53242;51.694;10.006;2022-07-17T08:53:53;100684.44;;;21.78;40.71
66430;BME280;53242;51.694;10.006;2022-07-17T08:56:16;100685.97;;;22.03;40.17
66430;BME280;53242;51.694;10.006;2022-07-17T08:58:39;100694.50;;;21.99;39.68
66430;BME280;53242;51.694;10.006;2022-07-17T09:01:01;100698.19;;;21.81;39.52
66430;BME280;53242;51.694;10.006;2022-07-17T09:03:24;100701.84;;;21.75;39.68
66430;BME280;53242;51.694;10.006;2022-07-17T09:05:47;100691.19;;;21.80;39.52
66430;BME280;53242;51.694;10.006;2022-07-17T09:08:16;100695.28;;;21.83;38.98
66430;BME280;53242;51.694;10.006;2022-07-17T09:10:41;100686.25;;;21.89;39.50
66430;BME280;53242;51.694;10.006;2022-07-17T09:13:37;100688.84;;;21.84;38.73
66430;BME280;53242;51.694;10.006;2022-07-17T09:18:29;100676.66;;;22.39;38.75
66430;BME280;53242;51.694;10.006;2022-07-17T09:20:56;100669.47;;;22.45;38.08
66430;BME280;53242;51.694;10.006;2022-07-17T09:23:20;100666.38;;;22.70;38.12
66430;BME280;53242;51.694;10.006;2022-07-17T09:25:50;100667.19;;;23.10;37.50
66430;BME280;53242;51.694;10.006;2022-07-17T09:28:14;100674.22;;;22.94;37.50
66430;BME280;53242;51.694;10.006;2022-07-17T09:30:45;100685.41;;;22.46;38.02
66430;BME280;53242;51.694;10.006;2022-07-17T09:33:16;100683.59;;;22.52;37.57
66430;BME280;53242;51.694;10.006;2022-07-17T09:35:54;100673.16;;;22.39;37.36
66430;BME280;53242;51.694;10.006;2022-07-17T09:38:33;100668.75;;;22.49;36.62
66430;BME280;53242;51.694;10.006;2022-07-17T09:41:06;100664.13;;;22.62;36.36
66430;BME280;53242;51.694;10.006;2022-07-17T09:43:53;100661.91;;;22.59;36.57
66430;BME280;53242;51.694;10.006;2022-07-17T09:46:18;100673.38;;;22.71;36.49
66430;BME280;53242;51.694;10.006;2022-07-17T09:48:44;100669.63;;;22.89;36.29
66430;BME280;53242;51.694;10.006;2022-07-17T09:51:10;100659.78;;;23.00;35.67
66430;BME280;53242;51.694;10.006;2022-07-17T09:53:36;100661.25;;;23.08;35.63
66430;BME280;53242;51.694;10.006;2022-07-17T09:55:59;100660.84;;;23.16;35.73
66430;BME280;53242;51.694;10.006;2022-07-17T09:58:25;100661.03;;;22.92;35.55
66430;BME280;53242;51.694;10.006;2022-07-17T10:00:48;100649.75;;;22.56;36.08
66430;BME280;53242;51.694;10.006;2022-07-17T10:03:10;100653.66;;;22.82;35.51
66430;BME280;53242;51.694;10.006;2022-07-17T10:05:33;100654.13;;;22.79;35.94
66430;BME280;53242;51.694;10.006;2022-07-17T10:07:55;100654.97;;;23.19;35.35
66430;BME280;53242;51.694;10.006;2022-07-17T10:10:18;100657.31;;;23.38;34.78
66430;BME280;53242;51.694;10.006;2022-07-17T10:12:46;100657.38;;;23.43;33.93
66430;BME280;53242;51.694;10.006;2022-07-17T10:15:10;100655.88;;;23.30;34.27
66430;BME280;53242;51.694;10.006;2022-07-17T10:17:33;100655.75;;;23.20;34.59
66430;BME280;53242;51.694;10.006;2022-07-17T10:19:56;100652.44;;;23.35;34.10
66430;BME280;53242;51.694;10.006;2022-07-17T10:22:20;100652.78;;;23.65;33.27
66430;BME280;53242;51.694;10.006;2022-07-17T10:24:48;100651.56;;;23.51;32.47
66430;BME280;53242;51.694;10.006;2022-07-17T10:27:45;100654.97;;;23.69;32.45
66430;BME280;53242;51.694;10.006;2022-07-17T10:30:11;100659.94;;;23.32;32.04
66430;BME280;53242;51.694;10.006;2022-07-17T10:32:33;100660.91;;;23.21;32.27
66430;BME280;53242;51.694;10.006;2022-07-17T10:35:00;100656.34;;;23.22;32.31
66430;BME280;53242;51.694;10.006;2022-07-17T10:37:39;100654.06;;;23.13;32.44
66430;BME280;53242;51.694;10.006;2022-07-17T10:42:41;100659.59;;;23.46;32.55
66430;BME280;53242;51.694;10.006;2022-07-17T10:47:56;100645.47;;;23.88;30.83
66430;BME280;53242;51.694;10.006;2022-07-17T10:50:22;100640.47;;;23.75;30.61
66430;BME280;53242;51.694;10.006;2022-07-17T10:55:30;100648.94;;;23.56;30.99
66430;BME280;53242;51.694;10.006;2022-07-17T10:57:54;100645.78;;;23.64;30.84
66430;BME280;53242;51.694;10.006;2022-07-17T11:00:17;100632.50;;;23.85;30.56
66430;BME280;53242;51.694;10.006;2022-07-17T11:02:40;100641.31;;;23.75;31.10
66430;BME280;53242;51.694;10.006;2022-07-17T11:05:07;100646.94;;;23.96;30.40
66430;BME280;53242;51.694;10.006;2022-07-17T11:07:30;100632.06;;;23.93;30.34
66430;BME280;53242;51.694;10.006;2022-07-17T11:09:52;100639.28;;;24.15;30.45
66430;BME280;53242;51.694;10.006;2022-07-17T11:12:15;100642.94;;;24.04;30.31
66430;BME280;53242;51.694;10.006;2022-07-17T11:14:39;100643.13;;;24.24;30.05
66430;BME280;53242;51.694;10.006;2022-07-17T11:17:02;100639.13;;;24.32;29.04
66430;BME280;53242;51.694;10.006;2022-07-17T11:21:51;100631.47;;;24.19;28.79
66430;BME280;53242;51.694;10.006;2022-07-17T11:24:14;100630.53;;;24.03;29.67
66430;BME280;53242;51.694;10.006;2022-07-17T11:26:37;100631.81;;;23.95;28.59
66430;BME280;53242;51.694;10.006;2022-07-17T11:29:00;100627.56;;;24.04;29.05
66430;BME280;53242;51.694;10.006;2022-07-17T11:31:25;100626.34;;;24.17;28.92
66430;BME280;53242;51.694;10.006;2022-07-17T11:34:01;100631.75;;;24.22;28.60
66430;BME280;53242;51.694;10.006;2022-07-17T11:36:27;100630.66;;;24.18;28.37
66430;BME280;53242;51.694;10.006;2022-07-17T11:38:50;100627.00;;;24.35;27.78
66430;BME280;53242;51.694;10.006;2022-07-17T11:41:12;100624.09;;;24.41;26.86
66430;BME280;53242;51.694;10.006;2022-07-17T11:43:41;100632.28;;;24.57;26.39
66430;BME280;53242;51.694;10.006;2022-07-17T11:46:03;100624.47;;;24.55;26.22
66430;BME280;53242;51.694;10.006;2022-07-17T11:48:26;100624.72;;;24.54;25.96
66430;BME280;53242;51.694;10.006;2022-07-17T11:50:53;100638.22;;;24.54;25.55
66430;BME280;53242;51.694;10.006;2022-07-17T11:53:16;100629.84;;;24.55;24.66
66430;BME280;53242;51.694;10.006;2022-07-17T11:55:40;100631.06;;;24.75;24.08
66430;BME280;53242;51.694;10.006;2022-07-17T11:58:03;100627.88;;;24.83;24.10
66430;BME280;53242;51.694;10.006;2022-07-17T12:00:26;100610.06;;;24.82;23.62
66430;BME280;53242;51.694;10.006;2022-07-17T12:03:01;100607.34;;;24.77;22.68
66430;BME280;53242;51.694;10.006;2022-07-17T12:05:32;100612.00;;;24.92;23.38
66430;BME280;53242;51.694;10.006;2022-07-17T12:07:55;100611.25;;;25.07;22.57
66430;BME280;53242;51.694;10.006;2022-07-17T12:10:20;100603.69;;;25.14;23.07
66430;BME280;53242;51.694;10.006;2022-07-17T12:13:03;100617.50;;;25.18;22.94
66430;BME280;53242;51.694;10.006;2022-07-17T12:15:40;100609.13;;;25.19;22.75
66430;BME280;53242;51.694;10.006;2022-07-17T12:18:04;100604.25;;;25.11;21.57
66430;BME280;53242;51.694;10.006;2022-07-17T12:20:43;100606.38;;;25.09;20.50
66430;BME280;53242;51.694;10.006;2022-07-17T12:23:07;100602.38;;;25.27;21.65
66430;BME280;53242;51.694;10.006;2022-07-17T12:25:29;100598.91;;;25.32;22.06
66430;BME280;53242;51.694;10.006;2022-07-17T12:27:52;100602.75;;;25.46;22.38
66430;BME280;53242;51.694;10.006;2022-07-17T12:30:14;100596.00;;;25.49;22.21
66430;BME280;53242;51.694;10.006;2022-07-17T12:32:41;100594.09;;;25.44;21.81
66430;BME280;53242;51.694;10.006;2022-07-17T12:35:04;100588.38;;;25.30;21.36